sensor_id;sensor_type;location;lat;lon;timestamp;P1;durP1;ratioP1;P2;durP2;ratioP2
47912;SDS011;33676;51.006;17.180;2022-08-19T00:00:09;9.00;;;8.20;;
47912;SDS011;33676;51.006;17.180;2022-08-19T00:03:00;10.80;;;9.80;;
47912;SDS011;33676;51.006;17.180;2022-08-19T00:05:28;9.60;;;8.70;;
47912;SDS011;33676;51.006;17.180;2022-08-19T00:07:57;10.00;;;9.10;;
47912;SDS011;33676;51.006;17.180;2022-08-19T00:10:25;9.40;;;8.70;;
47912;SDS011;33676;51.006;17.180;2022-08-19T00:12:54;9.80;;;9.00;;
47912;SDS011;33676;51.006;17.180;2022-08-19T00:15:22;9.90;;;9.10;;
47912;SDS011;33676;51.006;17.180;2022-08-19T00:17:50;9.80;;;8.90;;
47912;SDS011;33676;51.006;17.180;2022-08-19T00:20:20;9.80;;;9.00;;
47912;SDS011;33676;51.006;17.180;2022-08-19T00:22:49;9.90;;;8.30;;
47912;SDS011;33676;51.006;17.180;2022-08-19T00:25:18;10.60;;;9.10;;
47912;SDS011;33676;51.006;17.180;2022-08-19T00:27:57;9.90;;;8.60;;
47912;SDS011;33676;51.006;17.180;2022-08-19T00:30:27;9.10;;;8.40;;
47912;SDS011;33676;51.006;17.180;2022-08-19T00:32:57;8.80;;;8.20;;
47912;SDS011;33676;51.006;17.180;2022-08-19T00:35:26;10.20;;;9.20;;
47912;SDS011;33676;51.006;17.180;2022-08-19T00:37:57;9.70;;;8.90;;
47912;SDS011;33676;51.006;17.180;2022-08-19T00:40:26;9.50;;;8.50;;
47912;SDS011;33676;51.006;17.180;2022-08-19T00:42:54;9.30;;;8.60;;
47912;SDS011;33676;51.006;17.180;2022-08-19T00:45:26;9.90;;;8.90;;
47912;SDS011;33676;51.006;17.180;2022-08-19T00:47:56;14.90;;;10.60;;
47912;SDS011;33676;51.006;17.180;2022-08-19T00:50:24;8.70;;;7.80;;
47912;SDS011;33676;51.006;17.180;2022-08-19T00:52:52;10.00;;;9.00;;
47912;SDS011;33676;51.006;17.180;2022-08-19T00:55:24;9.90;;;8.90;;
47912;SDS011;33676;51.006;17.180;2022-08-19T00:58:03;9.00;;;8.20;;
47912;SDS011;33676;51.006;17.180;2022-08-19T01:00:35;9.40;;;8.60;;
47912;SDS011;33676;51.006;17.180;2022-08-19T01:03:11;9.00;;;8.20;;
47912;SDS011;33676;51.006;17.180;2022-08-19T01:05:43;10.00;;;9.10;;
47912;SDS011;33676;51.006;17.180;2022-08-19T01:08:14;9.50;;;8.60;;
47912;SDS011;33676;51.006;17.180;2022-08-19T01:10:50;8.90;;;8.20;;
47912;SDS011;33676;51.006;17.180;2022-08-19T01:13:26;9.20;;;8.40;;
47912;SDS011;33676;51.006;17.180;2022-08-19T01:16:17;9.50;;;8.80;;
47912;SDS011;33676;51.006;17.180;2022-08-19T01:18:49;9.40;;;8.70;;
47912;SDS011;33676;51.006;17.180;2022-08-19T01:23:53;10.40;;;9.40;;
47912;SDS011;33676;51.006;17.180;2022-08-19T01:26:23;10.10;;;9.00;;
47912;SDS011;33676;51.006;17.180;2022-08-19T01:28:55;8.60;;;8.00;;
47912;SDS011;33676;51.006;17.180;2022-08-19T01:31:28;10.10;;;8.90;;
47912;SDS011;33676;51.006;17.180;2022-08-19T01:34:01;10.60;;;9.60;;
47912;SDS011;33676;51.006;17.180;2022-08-19T01:36:36;10.20;;;9.20;;
47912;SDS011;33676;51.006;17.180;2022-08-19T01:39:13;8.80;;;8.10;;
47912;SDS011;33676;51.006;17.180;2022-08-19T01:41:50;9.90;;;9.00;;
47912;SDS011;33676;51.006;17.180;2022-08-19T01:44:22;11.20;;;9.20;;
47912;SDS011;33676;51.006;17.180;2022-08-19T01:46:52;10.20;;;9.40;;
47912;SDS011;33676;51.006;17.180;2022-08-19T01:49:22;9.50;;;8.40;;
47912;SDS011;33676;51.006;17.180;2022-08-19T01:51:53;9.30;;;8.50;;
47912;SDS011;33676;51.006;17.180;2022-08-19T01:54:23;9.60;;;8.80;;
47912;SDS011;33676;51.006;17.180;2022-08-19T01:57:02;10.20;;;9.30;;
47912;SDS011;33676;51.006;17.180;2022-08-19T01:59:34;11.10;;;10.20;;
47912;SDS011;33676;51.006;17.180;2022-08-19T02:02:05;10.80;;;9.70;;
47912;SDS011;33676;51.006;17.180;2022-08-19T02:04:36;9.20;;;8.40;;
47912;SDS011;33676;51.006;17.180;2022-08-19T02:07:06;10.10;;;9.10;;
47912;SDS011;33676;51.006;17.180;2022-08-19T02:09:36;10.00;;;9.20;;
47912;SDS011;33676;51.006;17.180;2022-08-19T02:12:05;10.50;;;9.60;;
47912;SDS011;33676;51.006;17.180;2022-08-19T02:14:37;10.20;;;9.30;;
47912;SDS011;33676;51.006;17.180;2022-08-19T02:17:05;10.20;;;9.20;;
47912;SDS011;33676;51.006;17.180;2022-08-19T02:19:34;10.40;;;9.60;;
47912;SDS011;33676;51.006;17.180;2022-08-19T02:22:05;10.40;;;9.60;;
47912;SDS011;33676;51.006;17.180;2022-08-19T02:24:34;12.00;;;10.90;;
47912;SDS011;33676;51.006;17.180;2022-08-19T02:27:03;10.80;;;10.00;;
47912;SDS011;33676;51.006;17.180;2022-08-19T02:29:32;11.30;;;10.20;;
47912;SDS011;33676;51.006;17.180;2022-08-19T02:32:01;9.40;;;8.60;;
47912;SDS011;33676;51.006;17.180;2022-08-19T02:34:29;10.80;;;9.90;;
47912;SDS011;33676;51.006;17.180;2022-08-19T02:36:58;11.10;;;10.10;;
47912;SDS011;33676;51.006;17.180;2022-08-19T02:39:31;12.60;;;11.30;;
47912;SDS011;33676;51.006;17.180;2022-08-19T02:41:59;12.50;;;11.50;;
47912;SDS011;33676;51.006;17.180;2022-08-19T02:44:29;11.90;;;10.80;;
47912;SDS011;33676;51.006;17.180;2022-08-19T02:46:59;10.60;;;9.90;;
47912;SDS011;33676;51.006;17.180;2022-08-19T02:49:27;11.60;;;10.50;;
47912;SDS011;33676;51.006;17.180;2022-08-19T02:51:55;12.10;;;11.10;;
47912;SDS011;33676;51.006;17.180;2022-08-19T02:54:24;13.60;;;12.30;;
47912;SDS011;33676;51.006;17.180;2022-08-19T02:56:52;11.00;;;10.10;;
47912;SDS011;33676;51.006;17.180;2022-08-19T02:59:20;12.20;;;11.20;;
47912;SDS011;33676;51.006;17.180;2022-08-19T03:01:50;11.40;;;10.40;;
47912;SDS011;33676;51.006;17.180;2022-08-19T03:04:18;12.10;;;11.00;;
47912;SDS011;33676;51.006;17.180;2022-08-19T03:06:48;14.60;;;11.40;;
47912;SDS011;33676;51.006;17.180;2022-08-19T03:09:18;12.30;;;11.10;;
47912;SDS011;33676;51.006;17.180;2022-08-19T03:11:48;13.40;;;11.20;;
47912;SDS011;33676;51.006;17.180;2022-08-19T03:14:19;11.50;;;10.50;;
47912;SDS011;33676;51.006;17.180;2022-08-19T03:16:51;12.50;;;11.40;;
47912;SDS011;33676;51.006;17.180;2022-08-19T03:19:20;12.20;;;11.10;;
47912;SDS011;33676;51.006;17.180;2022-08-19T03:21:51;13.00;;;11.80;;
47912;SDS011;33676;51.006;17.180;2022-08-19T03:24:20;11.00;;;10.10;;
47912;SDS011;33676;51.006;17.180;2022-08-19T03:26:52;13.20;;;11.80;;
47912;SDS011;33676;51.006;17.180;2022-08-19T03:29:27;13.20;;;12.00;;
47912;SDS011;33676;51.006;17.180;2022-08-19T03:32:00;12.30;;;11.30;;
47912;SDS011;33676;51.006;17.180;2022-08-19T03:34:33;12.60;;;11.30;;
47912;SDS011;33676;51.006;17.180;2022-08-19T03:37:05;13.70;;;12.50;;
47912;SDS011;33676;51.006;17.180;2022-08-19T03:39:38;14.20;;;12.90;;
47912;SDS011;33676;51.006;17.180;2022-08-19T03:42:08;15.00;;;13.60;;
47912;SDS011;33676;51.006;17.180;2022-08-19T03:44:57;14.00;;;12.80;;
47912;SDS011;33676;51.006;17.180;2022-08-19T03:47:26;14.90;;;13.60;;
47912;SDS011;33676;51.006;17.180;2022-08-19T03:49:54;14.30;;;13.10;;
47912;SDS011;33676;51.006;17.180;2022-08-19T03:52:23;14.50;;;13.00;;
47912;SDS011;33676;51.006;17.180;2022-08-19T03:54:51;15.50;;;14.10;;
47912;SDS011;33676;51.006;17.180;2022-08-19T03:57:20;15.30;;;13.90;;
47912;SDS011;33676;51.006;17.180;2022-08-19T03:59:58;15.00;;;13.50;;
47912;SDS011;33676;51.006;17.180;2022-08-19T04:02:41;13.50;;;12.30;;
47912;SDS011;33676;51.006;17.180;2022-08-19T04:05:28;13.60;;;12.50;;
47912;SDS011;33676;51.006;17.180;2022-08-19T04:07:57;13.80;;;12.20;;
47912;SDS011;33676;51.006;17.180;2022-08-19T04:10:27;14.30;;;12.80;;
47912;SDS011;33676;51.006;17.180;2022-08-19T04:12:56;13.80;;;12.50;;
47912;SDS011;33676;51.006;17.180;2022-08-19T04:15:24;14.60;;;13.40;;
47912;SDS011;33676;51.006;17.180;2022-08-19T04:17:53;14.60;;;12.80;;
47912;SDS011;33676;51.006;17.180;2022-08-19T04:20:21;13.70;;;12.50;;
47912;SDS011;33676;51.006;17.180;2022-08-19T04:22:49;15.50;;;14.00;;
47912;SDS011;33676;51.006;17.180;2022-08-19T04:25:17;15.10;;;13.50;;
47912;SDS011;33676;51.006;17.180;2022-08-19T04:27:46;14.80;;;13.20;;
47912;SDS011;33676;51.006;17.180;2022-08-19T04:30:14;14.80;;;13.40;;
47912;SDS011;33676;51.006;17.180;2022-08-19T04:32:43;13.50;;;12.20;;
47912;SDS011;33676;51.006;17.180;2022-08-19T04:35:11;14.50;;;13.10;;
47912;SDS011;33676;51.006;17.180;2022-08-19T04:37:46;13.90;;;12.60;;
47912;SDS011;33676;51.006;17.180;2022-08-19T04:40:14;14.20;;;13.00;;
47912;SDS011;33676;51.006;17.180;2022-08-19T04:43:01;15.00;;;13.70;;
47912;SDS011;33676;51.006;17.180;2022-08-19T04:45:30;14.00;;;12.70;;
47912;SDS011;33676;51.006;17.180;2022-08-19T04:48:11;15.00;;;13.60;;
47912;SDS011;33676;51.006;17.180;2022-08-19T04:50:56;15.00;;;13.60;;
47912;SDS011;33676;51.006;17.180;2022-08-19T04:53:30;14.60;;;13.20;;
47912;SDS011;33676;51.006;17.180;2022-08-19T04:56:09;14.50;;;13.00;;
47912;SDS011;33676;51.006;17.180;2022-08-19T04:58:41;14.60;;;13.30;;
47912;SDS011;33676;51.006;17.180;2022-08-19T05:01:17;15.30;;;14.10;;
47912;SDS011;33676;51.006;17.180;2022-08-19T05:03:47;14.10;;;12.60;;
47912;SDS011;33676;51.006;17.180;2022-08-19T05:06:19;14.30;;;13.00;;
47912;SDS011;33676;51.006;17.180;2022-08-19T05:08:49;14.70;;;13.40;;
47912;SDS011;33676;51.006;17.180;2022-08-19T05:11:23;14.80;;;13.60;;
47912;SDS011;33676;51.006;17.180;2022-08-19T05:13:57;17.70;;;14.90;;
47912;SDS011;33676;51.006;17.180;2022-08-19T05:16:26;15.00;;;13.40;;
47912;SDS011;33676;51.006;17.180;2022-08-19T05:18:55;16.50;;;13.40;;
47912;SDS011;33676;51.006;17.180;2022-08-19T05:21:43;16.00;;;14.50;;
47912;SDS011;33676;51.006;17.180;2022-08-19T05:24:31;17.60;;;13.20;;
47912;SDS011;33676;51.006;17.180;2022-08-19T05:27:02;19.30;;;15.50;;
47912;SDS011;33676;51.006;17.180;2022-08-19T05:29:33;15.10;;;13.50;;
47912;SDS011;33676;51.006;17.180;2022-08-19T05:32:04;15.30;;;13.50;;
47912;SDS011;33676;51.006;17.180;2022-08-19T05:34:37;15.90;;;14.30;;
47912;SDS011;33676;51.006;17.180;2022-08-19T05:37:08;15.10;;;13.70;;
47912;SDS011;33676;51.006;17.180;2022-08-19T05:39:37;16.90;;;14.70;;
47912;SDS011;33676;51.006;17.180;2022-08-19T05:42:08;15.30;;;14.00;;
47912;SDS011;33676;51.006;17.180;2022-08-19T05:44:42;14.90;;;13.50;;
47912;SDS011;33676;51.006;17.180;2022-08-19T05:47:13;15.40;;;14.00;;
47912;SDS011;33676;51.006;17.180;2022-08-19T05:49:43;19.90;;;13.80;;
47912;SDS011;33676;51.006;17.180;2022-08-19T05:52:13;15.90;;;14.20;;
47912;SDS011;33676;51.006;17.180;2022-08-19T05:54:53;15.00;;;13.60;;
47912;SDS011;33676;51.006;17.180;2022-08-19T05:57:24;14.60;;;13.30;;
47912;SDS011;33676;51.006;17.180;2022-08-19T05:59:52;15.50;;;13.40;;
47912;SDS011;33676;51.006;17.180;2022-08-19T06:02:26;15.50;;;13.90;;
47912;SDS011;33676;51.006;17.180;2022-08-19T06:04:56;15.10;;;13.70;;
47912;SDS011;33676;51.006;17.180;2022-08-19T06:07:25;15.50;;;13.90;;
47912;SDS011;33676;51.006;17.180;2022-08-19T06:09:54;14.00;;;12.90;;
47912;SDS011;33676;51.006;17.180;2022-08-19T06:12:28;15.90;;;13.10;;
47912;SDS011;33676;51.006;17.180;2022-08-19T06:15:07;16.00;;;14.60;;
47912;SDS011;33676;51.006;17.180;2022-08-19T06:17:39;14.90;;;13.50;;
47912;SDS011;33676;51.006;17.180;2022-08-19T06:20:12;16.90;;;15.20;;
47912;SDS011;33676;51.006;17.180;2022-08-19T06:22:44;14.60;;;12.90;;
47912;SDS011;33676;51.006;17.180;2022-08-19T06:25:14;14.40;;;13.00;;
47912;SDS011;33676;51.006;17.180;2022-08-19T06:27:43;14.30;;;13.00;;
47912;SDS011;33676;51.006;17.180;2022-08-19T06:30:32;14.30;;;12.70;;
47912;SDS011;33676;51.006;17.180;2022-08-19T06:33:01;14.90;;;13.10;;
47912;SDS011;33676;51.006;17.180;2022-08-19T06:35:29;13.80;;;12.40;;
47912;SDS011;33676;51.006;17.180;2022-08-19T06:37:57;13.50;;;12.40;;
47912;SDS011;33676;51.006;17.180;2022-08-19T06:40:27;12.40;;;11.50;;
47912;SDS011;33676;51.006;17.180;2022-08-19T06:42:55;17.20;;;11.40;;
47912;SDS011;33676;51.006;17.180;2022-08-19T06:45:28;12.60;;;11.50;;
47912;SDS011;33676;51.006;17.180;2022-08-19T06:48:02;13.20;;;11.70;;
47912;SDS011;33676;51.006;17.180;2022-08-19T06:50:31;12.90;;;11.60;;
47912;SDS011;33676;51.006;17.180;2022-08-19T06:52:59;12.90;;;11.60;;
47912;SDS011;33676;51.006;17.180;2022-08-19T06:55:31;13.20;;;12.00;;
47912;SDS011;33676;51.006;17.180;2022-08-19T06:58:04;11.60;;;10.40;;
47912;SDS011;33676;51.006;17.180;2022-08-19T07:00:33;12.60;;;11.30;;
47912;SDS011;33676;51.006;17.180;2022-08-19T07:03:01;14.60;;;11.20;;
47912;SDS011;33676;51.006;17.180;2022-08-19T07:05:42;12.80;;;11.50;;
47912;SDS011;33676;51.006;17.180;2022-08-19T07:08:13;10.70;;;9.80;;
47912;SDS011;33676;51.006;17.180;2022-08-19T07:10:44;11.30;;;10.30;;
47912;SDS011;33676;51.006;17.180;2022-08-19T07:13:17;11.70;;;10.30;;
47912;SDS011;33676;51.006;17.180;2022-08-19T07:15:45;12.20;;;10.90;;
47912;SDS011;33676;51.006;17.180;2022-08-19T07:18:15;10.20;;;9.20;;
47912;SDS011;33676;51.006;17.180;2022-08-19T07:20:44;8.90;;;8.20;;
47912;SDS011;33676;51.006;17.180;2022-08-19T07:23:12;8.10;;;7.30;;
47912;SDS011;33676;51.006;17.180;2022-08-19T07:25:50;16.70;;;9.30;;
47912;SDS011;33676;51.006;17.180;2022-08-19T07:28:20;8.40;;;7.60;;
47912;SDS011;33676;51.006;17.180;2022-08-19T07:30:52;10.80;;;8.40;;
47912;SDS011;33676;51.006;17.180;2022-08-19T07:33:22;8.30;;;7.50;;
47912;SDS011;33676;51.006;17.180;2022-08-19T07:35:54;9.10;;;8.30;;
47912;SDS011;33676;51.006;17.180;2022-08-19T07:38:23;10.10;;;7.80;;
47912;SDS011;33676;51.006;17.180;2022-08-19T07:40:54;8.50;;;7.70;;
47912;SDS011;33676;51.006;17.180;2022-08-19T07:43:22;8.60;;;7.70;;
47912;SDS011;33676;51.006;17.180;2022-08-19T07:46:02;9.30;;;8.40;;
47912;SDS011;33676;51.006;17.180;2022-08-19T07:48:31;9.40;;;7.10;;
47912;SDS011;33676;51.006;17.180;2022-08-19T07:51:03;8.30;;;7.50;;
47912;SDS011;33676;51.006;17.180;2022-08-19T07:53:49;9.60;;;7.80;;
47912;SDS011;33676;51.006;17.180;2022-08-19T07:56:19;9.40;;;7.90;;
47912;SDS011;33676;51.006;17.180;2022-08-19T07:58:50;8.30;;;7.00;;
47912;SDS011;33676;51.006;17.180;2022-08-19T08:01:22;6.40;;;5.90;;
47912;SDS011;33676;51.006;17.180;2022-08-19T08:06:45;7.00;;;6.50;;
47912;SDS011;33676;51.006;17.180;2022-08-19T08:09:46;7.20;;;6.50;;
47912;SDS011;33676;51.006;17.180;2022-08-19T08:12:27;7.40;;;6.70;;
47912;SDS011;33676;51.006;17.180;2022-08-19T08:15:05;5.90;;;5.50;;
47912;SDS011;33676;51.006;17.180;2022-08-19T08:17:39;6.40;;;5.70;;
47912;SDS011;33676;51.006;17.180;2022-08-19T08:20:17;6.70;;;6.20;;
47912;SDS011;33676;51.006;17.180;2022-08-19T08:22:47;6.40;;;5.40;;
47912;SDS011;33676;51.006;17.180;2022-08-19T08:25:35;6.90;;;6.40;;
47912;SDS011;33676;51.006;17.180;2022-08-19T08:28:04;9.70;;;6.90;;
47912;SDS011;33676;51.006;17.180;2022-08-19T08:30:33;7.90;;;6.90;;
47912;SDS011;33676;51.006;17.180;2022-08-19T08:33:37;8.70;;;6.80;;
47912;SDS011;33676;51.006;17.180;2022-08-19T08:36:10;7.20;;;5.80;;
47912;SDS011;33676;51.006;17.180;2022-08-19T08:38:49;8.40;;;6.20;;
47912;SDS011;33676;51.006;17.180;2022-08-19T08:46:45;8.00;;;7.20;;
47912;SDS011;33676;51.006;17.180;2022-08-19T08:50:12;9.30;;;8.40;;
47912;SDS011;33676;51.006;17.180;2022-08-19T08:53:10;9.00;;;7.10;;
47912;SDS011;33676;51.006;17.180;2022-08-19T08:56:22;10.30;;;6.70;;
47912;SDS011;33676;51.006;17.180;2022-08-19T08:59:31;8.60;;;7.50;;
47912;SDS011;33676;51.006;17.180;2022-08-19T09:02:04;7.90;;;7.10;;
47912;SDS011;33676;51.006;17.180;2022-08-19T09:05:10;7.70;;;6.90;;
47912;SDS011;33676;51.006;17.180;2022-08-19T09:08:03;7.30;;;6.50;;
47912;SDS011;33676;51.006;17.180;2022-08-19T09:11:24;7.40;;;6.40;;
47912;SDS011;33676;51.006;17.180;2022-08-19T09:17:26;6.80;;;6.10;;
47912;SDS011;33676;51.006;17.180;2022-08-19T09:20:20;6.10;;;5.60;;
47912;SDS011;33676;51.006;17.180;2022-08-19T09:22:53;6.90;;;6.30;;
47912;SDS011;33676;51.006;17.180;2022-08-19T09:25:22;6.40;;;5.60;;
47912;SDS011;33676;51.006;17.180;2022-08-19T09:27:56;5.80;;;5.30;;
47912;SDS011;33676;51.006;17.180;2022-08-19T09:30:36;6.20;;;5.60;;
47912;SDS011;33676;51.006;17.180;2022-08-19T09:33:12;6.80;;;6.20;;
47912;SDS011;33676;51.006;17.180;2022-08-19T09:35:40;9.20;;;5.70;;
47912;SDS011;33676;51.006;17.180;2022-08-19T09:38:21;9.50;;;6.20;;
47912;SDS011;33676;51.006;17.180;2022-08-19T09:40:49;6.00;;;5.50;;
47912;SDS011;33676;51.006;17.180;2022-08-19T09:43:18;6.40;;;5.70;;
47912;SDS011;33676;51.006;17.180;2022-08-19T09:46:08;6.00;;;5.60;;
47912;SDS011;33676;51.006;17.180;2022-08-19T09:48:38;9.10;;;6.00;;
47912;SDS011;33676;51.006;17.180;2022-08-19T09:51:13;6.20;;;5.40;;
47912;SDS011;33676;51.006;17.180;2022-08-19T09:53:49;5.90;;;5.50;;
47912;SDS011;33676;51.006;17.180;2022-08-19T09:56:21;5.70;;;5.30;;
47912;SDS011;33676;51.006;17.180;2022-08-19T09:58:51;7.40;;;6.00;;
47912;SDS011;33676;51.006;17.180;2022-08-19T10:01:22;5.50;;;5.00;;
47912;SDS011;33676;51.006;17.180;2022-08-19T10:03:56;6.50;;;5.90;;
47912;SDS011;33676;51.006;17.180;2022-08-19T10:06:29;6.60;;;5.70;;
47912;SDS011;33676;51.006;17.180;2022-08-19T10:09:16;6.40;;;5.40;;
47912;SDS011;33676;51.006;17.180;2022-08-19T10:12:01;5.90;;;5.50;;
47912;SDS011;33676;51.006;17.180;2022-08-19T10:14:33;6.90;;;5.70;;
47912;SDS011;33676;51.006;17.180;2022-08-19T10:17:02;6.90;;;6.30;;
47912;SDS011;33676;51.006;17.180;2022-08-19T10:22:23;5.50;;;4.70;;
47912;SDS011;33676;51.006;17.180;2022-08-19T10:24:53;6.00;;;5.30;;
47912;SDS011;33676;51.006;17.180;2022-08-19T10:27:23;5.60;;;5.00;;
47912;SDS011;33676;51.006;17.180;2022-08-19T10:29:53;7.60;;;5.50;;
47912;SDS011;33676;51.006;17.180;2022-08-19T10:32:22;10.20;;;5.90;;
47912;SDS011;33676;51.006;17.180;2022-08-19T10:35:03;30.00;;;9.40;;
47912;SDS011;33676;51.006;17.180;2022-08-19T10:37:36;5.60;;;5.10;;
47912;SDS011;33676;51.006;17.180;2022-08-19T10:40:26;6.70;;;6.10;;
47912;SDS011;33676;51.006;17.180;2022-08-19T10:42:56;6.30;;;5.40;;
47912;SDS011;33676;51.006;17.180;2022-08-19T10:45:24;5.70;;;4.80;;
47912;SDS011;33676;51.006;17.180;2022-08-19T10:47:59;6.60;;;6.10;;
47912;SDS011;33676;51.006;17.180;2022-08-19T10:50:29;5.60;;;5.20;;
47912;SDS011;33676;51.006;17.180;2022-08-19T10:53:16;6.50;;;5.40;;
47912;SDS011;33676;51.006;17.180;2022-08-19T10:55:45;5.20;;;4.80;;
47912;SDS011;33676;51.006;17.180;2022-08-19T10:58:32;5.90;;;5.30;;
47912;SDS011;33676;51.006;17.180;2022-08-19T11:01:00;5.80;;;5.40;;
47912;SDS011;33676;51.006;17.180;2022-08-19T11:03:29;9.10;;;5.30;;
47912;SDS011;33676;51.006;17.180;2022-08-19T11:06:04;5.70;;;4.30;;
47912;SDS011;33676;51.006;17.180;2022-08-19T11:08:35;4.20;;;3.90;;
47912;SDS011;33676;51.006;17.180;2022-08-19T11:11:06;5.10;;;4.50;;
47912;SDS011;33676;51.006;17.180;2022-08-19T11:13:38;4.20;;;3.90;;
47912;SDS011;33676;51.006;17.180;2022-08-19T11:16:09;3.90;;;3.60;;
47912;SDS011;33676;51.006;17.180;2022-08-19T11:18:43;4.40;;;4.00;;
47912;SDS011;33676;51.006;17.180;2022-08-19T11:21:27;3.50;;;3.20;;
47912;SDS011;33676;51.006;17.180;2022-08-19T11:24:04;5.30;;;3.70;;
47912;SDS011;33676;51.006;17.180;2022-08-19T11:26:35;4.90;;;3.60;;
47912;SDS011;33676;51.006;17.180;2022-08-19T11:29:11;4.10;;;3.90;;
47912;SDS011;33676;51.006;17.180;2022-08-19T11:31:43;5.20;;;4.30;;
47912;SDS011;33676;51.006;17.180;2022-08-19T11:34:20;4.10;;;3.70;;
47912;SDS011;33676;51.006;17.180;2022-08-19T11:36:51;4.20;;;3.90;;
47912;SDS011;33676;51.006;17.180;2022-08-19T11:39:23;3.60;;;3.30;;
47912;SDS011;33676;51.006;17.180;2022-08-19T11:41:53;4.40;;;4.00;;
47912;SDS011;33676;51.006;17.180;2022-08-19T11:44:22;4.80;;;4.50;;
47912;SDS011;33676;51.006;17.180;2022-08-19T11:46:50;4.20;;;3.80;;
47912;SDS011;33676;51.006;17.180;2022-08-19T11:49:20;4.90;;;4.00;;
47912;SDS011;33676;51.006;17.180;2022-08-19T11:51:49;8.10;;;4.10;;
47912;SDS011;33676;51.006;17.180;2022-08-19T11:54:20;4.00;;;3.60;;
47912;SDS011;33676;51.006;17.180;2022-08-19T11:56:49;3.50;;;3.30;;
47912;SDS011;33676;51.006;17.180;2022-08-19T11:59:17;4.60;;;3.30;;
47912;SDS011;33676;51.006;17.180;2022-08-19T12:01:46;4.40;;;4.10;;
47912;SDS011;33676;51.006;17.180;2022-08-19T12:04:14;5.30;;;4.50;;
47912;SDS011;33676;51.006;17.180;2022-08-19T12:06:45;4.10;;;3.90;;
47912;SDS011;33676;51.006;17.180;2022-08-19T12:09:13;4.10;;;3.80;;
47912;SDS011;33676;51.006;17.180;2022-08-19T12:11:43;4.80;;;4.40;;
47912;SDS011;33676;51.006;17.180;2022-08-19T12:14:13;3.50;;;3.30;;
47912;SDS011;33676;51.006;17.180;2022-08-19T12:16:46;4.80;;;3.60;;
47912;SDS011;33676;51.006;17.180;2022-08-19T12:19:19;8.20;;;4.10;;
47912;SDS011;33676;51.006;17.180;2022-08-19T12:21:50;4.20;;;3.90;;
47912;SDS011;33676;51.006;17.180;2022-08-19T12:24:21;5.50;;;4.20;;
47912;SDS011;33676;51.006;17.180;2022-08-19T12:26:51;6.90;;;4.40;;
47912;SDS011;33676;51.006;17.180;2022-08-19T12:29:22;3.80;;;3.20;;
47912;SDS011;33676;51.006;17.180;2022-08-19T12:31:52;4.10;;;3.30;;
47912;SDS011;33676;51.006;17.180;2022-08-19T12:34:20;4.40;;;3.20;;
47912;SDS011;33676;51.006;17.180;2022-08-19T12:36:50;3.80;;;3.50;;
47912;SDS011;33676;51.006;17.180;2022-08-19T12:39:18;12.10;;;3.60;;
47912;SDS011;33676;51.006;17.180;2022-08-19T12:41:46;4.70;;;3.60;;
47912;SDS011;33676;51.006;17.180;2022-08-19T12:44:22;3.30;;;3.10;;
47912;SDS011;33676;51.006;17.180;2022-08-19T12:46:59;5.90;;;3.60;;
47912;SDS011;33676;51.006;17.180;2022-08-19T12:49:36;3.80;;;3.30;;
47912;SDS011;33676;51.006;17.180;2022-08-19T12:52:24;3.50;;;3.20;;
47912;SDS011;33676;51.006;17.180;2022-08-19T12:54:56;5.70;;;3.20;;
47912;SDS011;33676;51.006;17.180;2022-08-19T12:57:27;4.00;;;2.90;;
47912;SDS011;33676;51.006;17.180;2022-08-19T13:00:03;3.40;;;3.10;;
47912;SDS011;33676;51.006;17.180;2022-08-19T13:02:43;6.50;;;3.40;;
47912;SDS011;33676;51.006;17.180;2022-08-19T13:05:23;3.40;;;3.20;;
47912;SDS011;33676;51.006;17.180;2022-08-19T13:07:55;3.20;;;2.90;;
47912;SDS011;33676;51.006;17.180;2022-08-19T13:10:31;5.10;;;3.00;;
47912;SDS011;33676;51.006;17.180;2022-08-19T13:13:08;3.40;;;3.10;;
47912;SDS011;33676;51.006;17.180;2022-08-19T13:15:39;3.40;;;3.10;;
47912;SDS011;33676;51.006;17.180;2022-08-19T13:18:10;3.60;;;3.10;;
47912;SDS011;33676;51.006;17.180;2022-08-19T13:20:40;3.20;;;2.50;;
47912;SDS011;33676;51.006;17.180;2022-08-19T13:23:19;5.20;;;3.60;;
47912;SDS011;33676;51.006;17.180;2022-08-19T13:25:59;4.20;;;3.50;;
47912;SDS011;33676;51.006;17.180;2022-08-19T13:28:30;4.60;;;3.30;;
47912;SDS011;33676;51.006;17.180;2022-08-19T13:31:30;4.40;;;2.80;;
47912;SDS011;33676;51.006;17.180;2022-08-19T13:34:28;5.50;;;3.90;;
47912;SDS011;33676;51.006;17.180;2022-08-19T13:37:07;5.20;;;3.30;;
47912;SDS011;33676;51.006;17.180;2022-08-19T13:39:36;7.80;;;4.60;;
47912;SDS011;33676;51.006;17.180;2022-08-19T13:42:05;4.80;;;3.20;;
47912;SDS011;33676;51.006;17.180;2022-08-19T13:44:35;5.50;;;4.20;;
47912;SDS011;33676;51.006;17.180;2022-08-19T13:47:05;4.60;;;3.10;;
47912;SDS011;33676;51.006;17.180;2022-08-19T13:49:35;4.30;;;3.50;;
47912;SDS011;33676;51.006;17.180;2022-08-19T13:52:05;3.90;;;3.50;;
47912;SDS011;33676;51.006;17.180;2022-08-19T13:54:33;4.30;;;3.60;;
47912;SDS011;33676;51.006;17.180;2022-08-19T13:57:02;5.40;;;3.70;;
47912;SDS011;33676;51.006;17.180;2022-08-19T13:59:30;5.30;;;4.80;;
47912;SDS011;33676;51.006;17.180;2022-08-19T14:02:00;5.10;;;4.60;;
47912;SDS011;33676;51.006;17.180;2022-08-19T14:04:29;5.30;;;3.40;;
47912;SDS011;33676;51.006;17.180;2022-08-19T14:06:57;5.00;;;3.80;;
47912;SDS011;33676;51.006;17.180;2022-08-19T14:09:25;6.10;;;4.60;;
47912;SDS011;33676;51.006;17.180;2022-08-19T14:11:54;6.60;;;5.60;;
47912;SDS011;33676;51.006;17.180;2022-08-19T14:14:23;4.60;;;4.10;;
47912;SDS011;33676;51.006;17.180;2022-08-19T14:16:51;7.20;;;3.50;;
47912;SDS011;33676;51.006;17.180;2022-08-19T14:19:20;3.80;;;3.30;;
47912;SDS011;33676;51.006;17.180;2022-08-19T14:21:50;6.10;;;3.80;;
47912;SDS011;33676;51.006;17.180;2022-08-19T14:24:18;5.70;;;3.80;;
47912;SDS011;33676;51.006;17.180;2022-08-19T14:26:47;6.90;;;3.90;;
47912;SDS011;33676;51.006;17.180;2022-08-19T14:29:16;3.70;;;3.30;;
47912;SDS011;33676;51.006;17.180;2022-08-19T14:31:44;6.20;;;3.80;;
47912;SDS011;33676;51.006;17.180;2022-08-19T14:34:12;8.20;;;3.60;;
47912;SDS011;33676;51.006;17.180;2022-08-19T14:36:41;5.30;;;3.80;;
47912;SDS011;33676;51.006;17.180;2022-08-19T14:39:09;4.80;;;3.30;;
47912;SDS011;33676;51.006;17.180;2022-08-19T14:41:40;4.90;;;4.10;;
47912;SDS011;33676;51.006;17.180;2022-08-19T14:44:09;6.10;;;4.10;;
47912;SDS011;33676;51.006;17.180;2022-08-19T14:46:40;4.80;;;3.60;;
47912;SDS011;33676;51.006;17.180;2022-08-19T14:49:16;4.10;;;3.70;;
47912;SDS011;33676;51.006;17.180;2022-08-19T14:51:56;5.10;;;3.90;;
47912;SDS011;33676;51.006;17.180;2022-08-19T14:54:25;5.60;;;3.30;;
47912;SDS011;33676;51.006;17.180;2022-08-19T14:56:57;7.10;;;3.60;;
47912;SDS011;33676;51.006;17.180;2022-08-19T14:59:25;6.10;;;4.50;;
47912;SDS011;33676;51.006;17.180;2022-08-19T15:01:55;5.70;;;3.30;;
47912;SDS011;33676;51.006;17.180;2022-08-19T15:04:23;7.70;;;4.10;;
47912;SDS011;33676;51.006;17.180;2022-08-19T15:06:51;6.20;;;4.10;;
47912;SDS011;33676;51.006;17.180;2022-08-19T15:09:20;9.00;;;4.60;;
47912;SDS011;33676;51.006;17.180;2022-08-19T15:11:48;5.20;;;4.20;;
47912;SDS011;33676;51.006;17.180;2022-08-19T15:14:18;5.00;;;3.70;;
47912;SDS011;33676;51.006;17.180;2022-08-19T15:16:48;7.60;;;4.50;;